Time;durP1;ratioP1;P1;durP2;ratioP2;P2;SDS_P1;SDS_P2;PMS_P1;PMS_P2;Temp;Humidity;BMP_temperature;BMP_pressure;BME280_temperature;BME280_humidity;BME280_pressure;Samples;Min_cycle;Max_cycle;Signal;HPM_P1;HPM_P2
2022/10/09 00:04:50;;;;;;;7.60;6.58;;;;;;;11.41;82.59;100904.93;3455003;79;20946;-88
2022/10/09 00:09:42;;;;;;;11.45;6.95;;;;;;;11.40;82.74;100907.06;3405439;80;21041;-88
2022/10/09 00:14:33;;;;;;;8.60;6.35;;;;;;;11.41;82.88;100909.23;3406211;81;21441;-88
2022/10/09 00:19:24;;;;;;;8.98;6.15;;;;;;;11.41;82.91;100915.34;3364346;82;21058;-88
2022/10/09 00:24:15;;;;;;;10.93;6.55;;;;;;;11.40;83.00;100922.69;3458087;80;21448;-88
2022/10/09 00:29:06;;;;;;;9.50;6.05;;;;;;;11.45;83.20;100923.65;3431509;80;20943;-88
2022/10/09 00:33:57;;;;;;;12.60;6.55;;;;;;;11.39;83.01;100918.35;3485141;79;20966;-88
2022/10/09 00:38:49;;;;;;;7.33;5.30;;;;;;;11.33;83.13;100922.13;3459393;80;21504;-88
2022/10/09 00:43:48;;;;;;;9.13;4.92;;;;;;;11.26;83.38;100915.07;3463604;80;21204;-87
2022/10/09 00:48:39;;;;;;;13.32;5.97;;;;;;;11.25;83.50;100922.45;3448746;80;20971;-87
2022/10/09 00:53:30;;;;;;;6.10;5.00;;;;;;;11.25;83.39;100925.05;3443161;80;20951;-88
2022/10/09 00:58:23;;;;;;;8.15;6.03;;;;;;;11.26;83.58;100935.89;3424003;80;20943;-87
2022/10/09 01:03:15;;;;;;;7.12;4.70;;;;;;;11.30;83.47;100923.38;3456580;80;20935;-87
2022/10/09 01:08:14;;;;;;;6.10;5.45;;;;;;;11.33;83.32;100919.97;3447320;80;22007;-87
2022/10/09 01:13:19;;;;;;;6.45;4.83;;;;;;;11.31;83.17;100927.75;3475687;80;20998;-88
2022/10/09 01:18:28;;;;;;;8.78;5.28;;;;;;;11.24;83.17;100928.05;3498139;80;21080;-87
2022/10/09 01:23:54;;;;;;;5.78;4.08;;;;;;;11.16;82.96;100945.67;3476675;80;20964;-88
2022/10/09 01:28:50;;;;;;;5.35;4.80;;;;;;;11.08;82.83;100952.48;3294081;84;21522;-88
2022/10/09 01:33:43;;;;;;;8.70;4.93;;;;;;;11.00;82.84;100945.81;3311041;84;21535;-88
2022/10/09 01:38:37;;;;;;;7.22;5.22;;;;;;;10.96;82.92;100953.98;3340008;84;21550;-87
2022/10/09 01:43:28;;;;;;;6.83;4.70;;;;;;;10.97;82.96;100958.36;3347242;83;21013;-87
2022/10/09 01:48:23;;;;;;;8.40;5.62;;;;;;;11.00;82.96;100962.33;3371082;84;21020;-87
2022/10/09 01:53:18;;;;;;;8.93;5.30;;;;;;;11.02;82.96;100972.77;3363272;83;21021;-87
2022/10/09 01:58:20;;;;;;;7.85;5.78;;;;;;;11.03;82.96;100972.77;3316161;84;21489;-87
2022/10/09 02:03:15;;;;;;;11.75;6.42;;;;;;;11.04;82.87;100975.84;3390567;80;21444;-87
2022/10/09 02:08:09;;;;;;;7.33;5.92;;;;;;;11.01;82.71;100983.58;3457393;80;21465;-87
2022/10/09 02:13:01;;;;;;;8.73;6.10;;;;;;;10.96;82.90;100985.20;3450925;80;20997;-87
2022/10/09 02:17:56;;;;;;;7.65;6.50;;;;;;;10.98;83.02;100987.45;3385311;80;21004;-87
2022/10/09 02:22:48;;;;;;;8.08;6.00;;;;;;;10.97;83.02;100998.69;3442339;80;21758;-87
2022/10/09 02:27:39;;;;;;;10.23;7.00;;;;;;;10.94;82.93;101004.25;3450148;80;20968;-87
2022/10/09 02:32:31;;;;;;;7.90;7.10;;;;;;;10.95;82.99;101008.19;3451326;80;21536;-88
2022/10/09 02:37:22;;;;;;;11.25;6.35;;;;;;;10.99;82.93;101016.93;3478469;78;21026;-87
2022/10/09 02:42:13;;;;;;;10.45;7.00;;;;;;;10.99;82.96;101017.80;3498338;79;21510;-87
2022/10/09 02:47:04;;;;;;;8.30;6.20;;;;;;;10.95;82.80;101017.29;3497141;78;22111;-87
2022/10/09 02:51:55;;;;;;;9.25;6.08;;;;;;;10.86;82.48;101019.71;3453871;79;20982;-88
2022/10/09 02:56:47;;;;;;;10.72;5.80;;;;;;;10.77;82.57;101024.73;3415353;80;21458;-87
2022/10/09 03:01:38;;;;;;;7.22;5.17;;;;;;;10.68;82.48;101037.11;3428260;81;20983;-87
2022/10/09 03:06:30;;;;;;;6.28;4.85;;;;;;;10.57;82.40;101040.77;3461691;80;20932;-88
2022/10/09 03:11:24;;;;;;;8.90;6.08;;;;;;;10.44;82.37;101049.12;3430428;81;20952;-87
2022/10/09 03:16:19;;;;;;;6.25;5.33;;;;;;;10.33;82.33;101055.80;3383106;80;21036;-87
2022/10/09 03:21:15;;;;;;;10.48;6.22;;;;;;;10.20;82.43;101055.48;3377741;80;21470;-87
2022/10/09 03:26:11;;;;;;;8.60;6.33;;;;;;;10.10;82.52;101061.28;3414849;80;20944;-87
2022/10/09 03:31:03;;;;;;;8.40;6.30;;;;;;;10.03;82.62;101073.67;3404227;81;22147;-88
2022/10/09 03:35:56;;;;;;;8.05;6.92;;;;;;;9.98;82.95;101082.66;3413359;80;21833;-87
2022/10/09 03:40:47;;;;;;;11.73;7.87;;;;;;;9.98;82.97;101084.36;3402610;81;20975;-87
2022/10/09 03:45:40;;;;;;;12.15;7.15;;;;;;;9.90;82.89;101074.66;3384329;81;20983;-87
2022/10/09 03:50:31;;;;;;;10.25;6.92;;;;;;;9.88;83.25;101076.34;3471409;80;20923;-88
2022/10/09 03:55:23;;;;;;;9.43;6.55;;;;;;;9.85;83.03;101076.25;3410334;81;21456;-87
2022/10/09 04:00:14;;;;;;;10.00;7.15;;;;;;;9.85;83.21;101083.17;3476592;80;21305;-87
2022/10/09 04:05:06;;;;;;;8.73;5.83;;;;;;;9.85;83.23;101086.64;3460946;79;20980;-88
2022/10/09 04:09:58;;;;;;;8.63;6.20;;;;;;;9.87;83.60;101097.98;3445590;80;21062;-87
2022/10/09 04:14:49;;;;;;;11.60;8.38;;;;;;;9.87;83.35;101112.26;3486182;79;20972;-87
2022/10/09 04:19:40;;;;;;;9.28;6.97;;;;;;;9.89;83.19;101118.37;3489517;80;21369;-87
2022/10/09 04:24:31;;;;;;;12.05;7.45;;;;;;;9.90;83.38;101119.23;3444611;80;21580;-87
2022/10/09 04:29:22;;;;;;;10.13;7.03;;;;;;;9.94;83.34;101117.17;3412331;81;21002;-87
2022/10/09 04:34:14;;;;;;;9.98;7.75;;;;;;;9.98;83.27;101124.23;3460055;80;20990;-87
2022/10/09 04:39:05;;;;;;;13.13;9.13;;;;;;;9.98;82.96;101125.92;3475968;81;21020;-88
2022/10/09 04:43:56;;;;;;;10.25;8.90;;;;;;;9.95;82.97;101124.14;3465167;80;20927;-87
2022/10/09 04:48:47;;;;;;;12.68;9.43;;;;;;;9.91;83.00;101137.47;3471343;80;21973;-87
2022/10/09 04:53:39;;;;;;;12.90;9.03;;;;;;;9.89;83.00;101150.84;3470236;80;21000;-87
2022/10/09 04:58:31;;;;;;;11.08;9.20;;;;;;;9.91;83.06;101141.36;3447411;79;20974;-87
2022/10/09 05:03:23;;;;;;;11.57;9.53;;;;;;;9.92;83.18;101157.39;3450454;80;20975;-87
2022/10/09 05:08:14;;;;;;;13.62;9.40;;;;;;;9.93;83.00;101164.36;3489623;80;20929;-87
2022/10/09 05:13:05;;;;;;;14.53;9.75;;;;;;;9.93;82.84;101165.66;3448720;82;21516;-87
2022/10/09 05:17:57;;;;;;;11.70;9.83;;;;;;;9.95;82.99;101179.11;3375016;82;21026;-87
2022/10/09 05:22:48;;;;;;;11.50;8.50;;;;;;;9.94;82.70;101179.51;3431924;80;20970;-87
2022/10/09 05:27:39;;;;;;;12.78;8.73;;;;;;;9.92;82.75;101183.36;3418891;80;20951;-87
2022/10/09 05:32:30;;;;;;;9.68;8.70;;;;;;;9.91;82.85;101201.10;3508882;80;21511;-87
2022/10/09 05:37:21;;;;;;;10.63;9.10;;;;;;;9.89;82.63;101202.78;3433862;80;21221;-87
2022/10/09 05:42:12;;;;;;;10.15;9.15;;;;;;;9.87;82.81;101217.45;3452264;80;21010;-87
2022/10/09 05:47:04;;;;;;;10.80;8.43;;;;;;;9.89;82.75;101220.06;3452104;80;20974;-87
2022/10/09 05:51:55;;;;;;;13.13;10.20;;;;;;;9.85;82.59;101233.81;3428733;80;20959;-87
2022/10/09 05:56:46;;;;;;;10.25;9.25;;;;;;;9.82;82.71;101248.90;3423027;81;21046;-87
2022/10/09 06:01:42;;;;;;;9.60;8.70;;;;;;;9.80;82.59;101249.28;3395897;81;21271;-87
2022/10/09 06:06:37;;;;;;;14.18;9.55;;;;;;;9.83;82.69;101253.66;3459454;81;28722;-87
2022/10/09 06:11:32;;;;;;;9.60;8.50;;;;;;;9.83;82.71;101263.63;3393485;81;20978;-87
2022/10/09 06:16:27;;;;;;;10.43;9.53;;;;;;;9.84;82.25;101269.73;3399021;81;20911;-87
2022/10/09 06:21:18;;;;;;;9.53;8.60;;;;;;;9.91;82.30;101275.55;3433038;81;20976;-87
2022/10/09 06:26:12;;;;;;;9.23;8.35;;;;;;;9.96;82.06;101279.14;3382779;81;22016;-87
2022/10/09 06:31:07;;;;;;;10.63;8.65;;;;;;;10.04;82.04;101297.14;3387510;82;21010;-87
2022/10/09 06:36:10;;;;;;;10.68;8.85;;;;;;;10.11;81.76;101302.09;3375225;82;20967;-87
2022/10/09 06:41:08;;;;;;;8.85;7.95;;;;;;;10.12;81.60;101310.33;3441407;82;20987;-86
2022/10/09 06:46:03;;;;;;;8.35;7.37;;;;;;;10.13;81.71;101312.11;3424795;81;20987;-87
2022/10/09 06:50:54;;;;;;;7.75;6.65;;;;;;;10.21;81.48;101326.61;3411962;81;21195;-87
2022/10/09 06:55:57;;;;;;;9.08;7.25;;;;;;;10.32;81.29;101328.23;3433333;81;20975;-87
2022/10/09 07:00:48;;;;;;;6.95;6.05;;;;;;;10.43;81.03;101333.34;3447862;82;20950;-87
2022/10/09 07:05:39;;;;;;;5.87;5.33;;;;;;;10.59;80.56;101332.91;3414126;81;20990;-87
2022/10/09 07:10:30;;;;;;;7.60;6.83;;;;;;;10.77;80.33;101342.05;3428117;81;20952;-87
2022/10/09 07:15:22;;;;;;;7.23;6.53;;;;;;;10.78;80.18;101348.98;3429133;81;20924;-87
2022/10/09 07:20:13;;;;;;;8.70;6.90;;;;;;;10.79;79.80;101359.87;3386365;81;21163;-87
2022/10/09 07:25:05;;;;;;;6.53;5.50;;;;;;;10.91;79.73;101362.79;3381533;81;20956;-87
2022/10/09 07:29:57;;;;;;;7.92;6.90;;;;;;;10.99;79.49;101370.35;3386362;82;20993;-87
2022/10/09 07:34:48;;;;;;;8.10;7.35;;;;;;;11.06;79.15;101377.48;3397528;82;21496;-87
2022/10/09 07:39:39;;;;;;;9.63;8.60;;;;;;;11.11;79.29;101380.21;3446068;80;20963;-87
2022/10/09 07:44:30;;;;;;;8.30;7.60;;;;;;;11.17;79.24;101382.95;3440827;81;20955;-87
2022/10/09 07:49:22;;;;;;;9.88;8.38;;;;;;;11.43;78.42;101392.72;3433467;81;20966;-87
2022/10/09 07:54:13;;;;;;;11.12;7.90;;;;;;;11.43;78.84;101394.02;3439416;79;20923;-87
2022/10/09 07:59:09;;;;;;;10.08;7.83;;;;;;;11.33;78.56;101402.87;3415509;80;20952;-86
2022/10/09 08:04:03;;;;;;;6.90;6.25;;;;;;;11.29;78.37;101407.13;3480977;80;21110;-86
2022/10/09 08:08:58;;;;;;;5.00;4.33;;;;;;;11.56;77.82;101413.84;3456595;80;20925;-87
2022/10/09 08:13:50;;;;;;;4.67;4.15;;;;;;;11.90;76.92;101418.55;3487228;80;21570;-86
2022/10/09 08:18:41;;;;;;;5.45;3.60;;;;;;;12.40;75.75;101422.70;3470757;79;21306;-87
2022/10/09 08:23:33;;;;;;;4.40;3.42;;;;;;;12.58;75.46;101428.28;3450908;79;20932;-87
2022/10/09 08:28:24;;;;;;;4.25;3.72;;;;;;;12.48;74.72;101434.59;3486513;80;21850;-87
2022/10/09 08:33:20;;;;;;;5.03;3.75;;;;;;;12.45;75.22;101443.25;3400002;80;21482;-86
2022/10/09 08:38:09;;;;;;;3.67;3.30;;;;;;;12.37;74.51;101453.92;3452257;80;20909;-87
2022/10/09 08:43:06;;;;;;;3.90;3.50;;;;;;;12.58;73.96;101445.24;3495050;80;21032;-86
2022/10/09 08:48:02;;;;;;;4.15;3.50;;;;;;;12.68;73.88;101462.38;3416927;80;21334;-87
2022/10/09 08:53:04;;;;;;;4.92;3.80;;;;;;;12.75;73.81;101462.95;3497271;79;22172;-86
2022/10/09 08:58:03;;;;;;;7.25;4.30;;;;;;;12.69;73.34;101466.33;3470620;79;20957;-87
2022/10/09 09:03:25;;;;;;;4.40;4.03;;;;;;;12.69;73.30;101468.07;3443222;80;20964;-87
2022/10/09 09:08:34;;;;;;;4.95;4.45;;;;;;;12.62;72.93;101471.41;3482607;80;21057;-87
2022/10/09 09:14:09;;;;;;;7.15;6.40;;;;;;;12.61;73.55;101473.54;3496465;79;21043;-88
2022/10/09 09:19:30;;;;;;;8.58;7.78;;;;;;;12.34;73.58;101486.45;3514975;78;21597;-87
2022/10/09 09:24:29;;;;;;;8.35;7.58;;;;;;;12.06;74.04;101483.23;3468859;78;21000;-87
2022/10/09 09:29:23;;;;;;;12.43;8.28;;;;;;;11.93;74.71;101483.77;3468793;80;20897;-88
2022/10/09 09:34:28;;;;;;;4.28;3.87;;;;;;;12.52;74.26;101481.66;3491421;80;21018;-88
2022/10/09 09:39:24;;;;;;;5.22;2.70;;;;;;;12.95;72.78;101482.52;3384995;82;20924;-88
2022/10/09 09:44:16;;;;;;;2.60;2.33;;;;;;;13.12;71.70;101481.95;3408991;82;22180;-87
2022/10/09 09:49:18;;;;;;;6.55;5.90;;;;;;;13.19;71.28;101490.35;3373987;81;21047;-85
2022/10/09 09:54:26;;;;;;;7.65;5.97;;;;;;;13.35;71.74;101499.39;3389864;82;20954;-85
2022/10/09 09:59:34;;;;;;;9.30;8.28;;;;;;;13.50;70.68;101498.77;3415426;81;21014;-84
2022/10/09 10:04:27;;;;;;;8.55;7.25;;;;;;;13.77;70.54;101500.09;3421898;81;21009;-84
2022/10/09 10:09:19;;;;;;;7.67;6.97;;;;;;;13.95;71.12;101506.94;3344318;81;21551;-84
2022/10/09 10:14:15;;;;;;;8.55;6.97;;;;;;;14.22;70.38;101509.52;3378168;83;20983;-84
2022/10/09 10:19:26;;;;;;;6.75;6.15;;;;;;;14.13;69.83;101510.27;3382648;81;20979;-84
2022/10/09 10:24:22;;;;;;;8.60;6.70;;;;;;;13.83;69.69;101518.50;3416537;81;21049;-81
2022/10/09 10:29:21;;;;;;;7.28;6.15;;;;;;;13.77;70.03;101520.59;3369461;81;20986;-81
2022/10/09 10:34:24;;;;;;;5.20;4.70;;;;;;;13.46;69.91;101521.78;3376732;81;21817;-81
2022/10/09 10:39:24;;;;;;;9.38;4.62;;;;;;;13.32;69.85;101521.11;3446907;81;20979;-81
2022/10/09 10:44:26;;;;;;;4.90;3.83;;;;;;;13.39;69.90;101524.70;3405566;81;21022;-81
2022/10/09 10:49:21;;;;;;;3.92;3.40;;;;;;;13.50;70.23;101536.64;3422182;80;20959;-83
2022/10/09 10:54:46;;;;;;;4.65;3.90;;;;;;;13.41;69.41;101533.88;3356665;82;21959;-82
2022/10/09 11:00:06;;;;;;;3.40;3.10;;;;;;;13.42;69.51;101538.26;3387587;83;21029;-82
2022/10/09 11:05:15;;;;;;;8.00;3.80;;;;;;;13.42;69.24;101542.17;3406797;82;21654;-82
2022/10/09 11:10:24;;;;;;;4.47;4.08;;;;;;;13.27;69.22;101547.53;3364366;84;21617;-82
2022/10/09 11:16:07;;;;;;;6.45;5.85;;;;;;;13.14;69.58;101547.73;3340441;84;21487;-82
2022/10/09 11:21:19;;;;;;;8.23;6.87;;;;;;;13.22;69.80;101548.30;3374200;84;21121;-82
2022/10/09 11:26:39;;;;;;;8.00;6.20;;;;;;;13.43;69.93;101547.84;3402641;82;21260;-82
2022/10/09 11:31:42;;;;;;;6.85;6.15;;;;;;;13.59;69.93;101543.77;3374353;83;21485;-82
2022/10/09 11:36:41;;;;;;;7.15;6.40;;;;;;;13.75;68.87;101542.31;3320215;84;21032;-82
2022/10/09 11:41:35;;;;;;;6.08;5.47;;;;;;;13.78;68.58;101535.84;3361509;83;20960;-82
2022/10/09 11:46:34;;;;;;;5.03;4.47;;;;;;;13.75;68.93;101537.08;3340394;83;20926;-81
2022/10/09 11:51:56;;;;;;;4.70;4.05;;;;;;;13.71;68.77;101536.15;3402588;82;21136;-82
2022/10/09 11:56:59;;;;;;;5.87;3.35;;;;;;;13.47;68.27;101544.02;3432289;80;20929;-82
2022/10/09 12:01:51;;;;;;;4.10;2.70;;;;;;;13.20;67.72;101544.35;3444796;80;21002;-82
2022/10/09 12:06:59;;;;;;;4.47;2.80;;;;;;;13.19;68.60;101541.27;3459098;80;20944;-82
2022/10/09 12:12:07;;;;;;;5.60;3.62;;;;;;;13.18;68.54;101547.36;3476210;80;20967;-82
2022/10/09 12:17:00;;;;;;;5.97;3.98;;;;;;;13.12;68.23;101555.92;3511470;81;21028;-82
2022/10/09 12:22:15;;;;;;;7.05;4.50;;;;;;;12.97;68.66;101559.13;3497023;80;21473;-82
2022/10/09 12:27:14;;;;;;;4.62;4.22;;;;;;;12.75;68.48;101556.89;3465643;80;21039;-82
2022/10/09 12:32:14;;;;;;;5.20;4.08;;;;;;;12.80;69.03;101552.66;3427061;80;20967;-81
2022/10/09 12:37:19;;;;;;;4.37;3.70;;;;;;;12.78;68.53;101557.84;3430726;80;20982;-81
2022/10/09 12:42:19;;;;;;;6.05;4.80;;;;;;;12.70;68.45;101557.25;3426233;80;21048;-81
2022/10/09 12:47:21;;;;;;;9.08;5.75;;;;;;;12.66;69.06;101552.79;3446687;80;21054;-81
2022/10/09 12:52:15;;;;;;;6.67;4.70;;;;;;;12.65;69.45;101560.17;3535790;79;20991;-81
2022/10/09 12:57:11;;;;;;;4.92;4.15;;;;;;;12.64;69.33;101556.66;3401686;80;20975;-81
2022/10/09 13:02:03;;;;;;;6.22;4.65;;;;;;;12.55;69.42;101553.86;3412296;79;26766;-81
2022/10/09 13:07:02;;;;;;;7.92;4.50;;;;;;;12.45;69.36;101561.02;3462901;80;21095;-81
2022/10/09 13:11:59;;;;;;;7.22;4.60;;;;;;;12.44;69.58;101568.40;3516377;79;21640;-81
2022/10/09 13:16:50;;;;;;;4.47;3.95;;;;;;;12.56;69.87;101564.77;3562955;79;21075;-81
2022/10/09 13:21:41;;;;;;;4.05;3.65;;;;;;;12.59;69.32;101567.02;3522892;79;20994;-81
2022/10/09 13:26:35;;;;;;;6.20;4.05;;;;;;;12.71;69.37;101565.08;3500168;79;20949;-87
2022/10/09 13:31:26;;;;;;;4.78;2.90;;;;;;;12.88;69.11;101556.33;3476499;79;21392;-81
2022/10/09 13:36:19;;;;;;;3.62;3.05;;;;;;;13.55;68.79;101548.06;3461394;79;21130;-81
2022/10/09 13:41:18;;;;;;;5.08;3.05;;;;;;;13.73;67.95;101547.50;3448944;79;21022;-81
2022/10/09 13:46:10;;;;;;;3.90;3.08;;;;;;;13.67;67.81;101547.41;3472807;80;21001;-81
2022/10/09 13:51:01;;;;;;;4.30;2.80;;;;;;;13.49;67.25;101542.74;3417300;80;20979;-80
2022/10/09 13:55:53;;;;;;;3.55;3.25;;;;;;;13.34;67.02;101549.45;3396455;80;21397;-81
2022/10/09 14:00:45;;;;;;;3.67;2.58;;;;;;;13.33;67.81;101548.11;3373549;83;20974;-79
2022/10/09 14:05:36;;;;;;;4.25;3.15;;;;;;;13.33;67.49;101546.80;3364949;83;20982;-80
2022/10/09 14:10:28;;;;;;;4.12;3.67;;;;;;;13.35;67.22;101542.48;3406570;81;21057;-81
2022/10/09 14:15:19;;;;;;;4.83;3.70;;;;;;;13.70;67.23;101537.89;3367102;81;20962;-81
2022/10/09 14:20:11;;;;;;;3.67;3.37;;;;;;;14.06;66.83;101548.94;3399410;80;21483;-80
2022/10/09 14:25:03;;;;;;;4.62;3.70;;;;;;;14.39;65.91;101538.09;3426055;81;22157;-81
2022/10/09 14:29:54;;;;;;;4.70;3.70;;;;;;;14.48;65.59;101540.83;3435057;81;21002;-81
2022/10/09 14:34:46;;;;;;;5.35;4.80;;;;;;;14.45;65.26;101542.11;3416285;81;20983;-81
2022/10/09 14:39:37;;;;;;;4.50;4.10;;;;;;;14.28;65.29;101543.59;3437023;81;21023;-81
2022/10/09 14:44:28;;;;;;;8.08;4.53;;;;;;;13.86;65.09;101540.75;3439271;81;21260;-81
2022/10/09 14:49:20;;;;;;;5.35;4.45;;;;;;;13.48;65.42;101537.92;3422180;82;20959;-81
2022/10/09 14:54:12;;;;;;;4.55;4.10;;;;;;;13.25;66.19;101538.80;3408234;81;21451;-81
2022/10/09 14:59:05;;;;;;;5.65;3.87;;;;;;;13.01;66.58;101543.09;3408577;81;20951;-81
2022/10/09 15:03:56;;;;;;;8.13;5.08;;;;;;;12.77;66.83;101548.27;3481759;79;20970;-81
2022/10/09 15:08:47;;;;;;;6.30;4.20;;;;;;;12.57;67.03;101547.84;3462533;79;21897;-81
2022/10/09 15:13:39;;;;;;;7.03;5.75;;;;;;;12.42;67.43;101550.53;3435792;81;21491;-81
2022/10/09 15:18:30;;;;;;;6.80;5.30;;;;;;;12.29;67.89;101545.03;3435930;79;20975;-81
2022/10/09 15:23:21;;;;;;;7.65;4.78;;;;;;;12.13;68.30;101552.91;3478522;80;20927;-81
2022/10/09 15:28:12;;;;;;;6.85;5.15;;;;;;;11.97;68.84;101553.39;3488274;80;21194;-80
2022/10/09 15:33:04;;;;;;;6.47;5.87;;;;;;;11.79;69.16;101572.89;3418921;81;21553;-81
2022/10/09 15:37:55;;;;;;;7.10;5.60;;;;;;;11.66;69.23;101577.73;3474361;80;20997;-81
2022/10/09 15:42:46;;;;;;;8.58;5.55;;;;;;;11.50;69.69;101575.14;3478196;80;20959;-81
2022/10/09 15:47:37;;;;;;;6.47;5.67;;;;;;;11.26;70.10;101573.20;3438595;80;21058;-80
2022/10/09 15:52:28;;;;;;;8.43;6.08;;;;;;;11.04;70.55;101576.94;3449435;80;21418;-81
2022/10/09 15:57:21;;;;;;;8.60;6.00;;;;;;;10.85;70.96;101582.44;3474750;80;21143;-81
2022/10/09 16:02:12;;;;;;;9.73;6.90;;;;;;;10.63;71.37;101587.00;3466421;80;20981;-81
2022/10/09 16:07:04;;;;;;;6.05;5.45;;;;;;;10.41;71.53;101591.05;3501712;79;21098;-81
2022/10/09 16:11:55;;;;;;;6.87;5.42;;;;;;;10.17;71.88;101592.00;3464746;79;21002;-81
2022/10/09 16:16:48;;;;;;;8.80;6.20;;;;;;;9.99;72.29;101594.01;3451439;79;20918;-81
2022/10/09 16:21:39;;;;;;;8.23;6.92;;;;;;;9.80;72.42;101595.09;3402746;81;21117;-81
2022/10/09 16:26:31;;;;;;;9.33;6.22;;;;;;;9.62;72.75;101592.74;3409454;80;21073;-81
2022/10/09 16:31:29;;;;;;;8.30;7.47;;;;;;;9.44;72.83;101603.36;3412952;81;21007;-80
2022/10/09 16:36:20;;;;;;;8.90;7.08;;;;;;;9.26;72.76;101609.65;3424501;81;22394;-80
2022/10/09 16:41:16;;;;;;;12.50;7.08;;;;;;;9.09;73.12;101614.23;3450487;80;21426;-80
2022/10/09 16:46:22;;;;;;;11.28;8.35;;;;;;;8.93;73.51;101613.19;3474564;80;21009;-80
2022/10/09 16:51:17;;;;;;;14.05;9.10;;;;;;;8.75;73.70;101623.31;3449043;80;20991;-80
2022/10/09 16:56:13;;;;;;;10.98;9.00;;;;;;;8.63;74.10;101621.54;3455574;79;20896;-80
2022/10/09 17:01:04;;;;;;;10.50;8.68;;;;;;;8.50;74.01;101621.89;3415336;81;21601;-80
2022/10/09 17:05:56;;;;;;;11.97;10.45;;;;;;;8.35;74.21;101622.11;3473768;79;20988;-80
2022/10/09 17:10:47;;;;;;;10.88;9.60;;;;;;;8.14;74.50;101641.56;3471752;80;21537;-80
2022/10/09 17:15:40;;;;;;;12.75;8.70;;;;;;;8.14;74.50;101641.56;3464108;80;20963;-80
2022/10/09 17:20:33;;;;;;;15.40;9.13;;;;;;;8.06;74.79;101642.52;3454917;80;21023;-81
2022/10/09 17:25:24;;;;;;;10.65;7.90;;;;;;;7.82;74.60;101644.55;3430020;80;20911;-80
2022/10/09 17:30:16;;;;;;;18.05;9.75;;;;;;;7.82;74.60;101644.55;3461599;80;38847;-80
2022/10/09 17:35:08;;;;;;;16.10;11.15;;;;;;;7.75;74.92;101646.81;3464890;80;21214;-80
2022/10/09 17:39:59;;;;;;;11.48;9.60;;;;;;;7.69;75.12;101647.83;3428174;80;21006;-80
2022/10/09 17:44:50;;;;;;;14.15;8.65;;;;;;;7.60;75.17;101658.27;3448301;80;21046;-80
2022/10/09 17:49:41;;;;;;;11.35;8.18;;;;;;;7.60;75.17;101658.27;3432438;79;21065;-80
2022/10/09 17:54:33;;;;;;;11.30;9.38;;;;;;;7.49;74.85;101656.89;3433700;80;21037;-80
2022/10/09 17:59:24;;;;;;;15.72;10.05;;;;;;;7.34;75.14;101657.52;3408196;80;22101;-80
2022/10/09 18:04:16;;;;;;;12.60;9.90;;;;;;;7.25;75.21;101656.69;3464621;79;21631;-80
2022/10/09 18:09:08;;;;;;;13.78;10.35;;;;;;;7.18;74.93;101667.15;3414281;80;21421;-80
2022/10/09 18:13:59;;;;;;;14.53;12.63;;;;;;;7.10;75.13;101660.76;3400059;80;20993;-80
2022/10/09 18:18:50;;;;;;;14.28;10.60;;;;;;;7.02;75.36;101667.27;3417716;80;21043;-80
2022/10/09 18:23:43;;;;;;;16.20;10.23;;;;;;;6.90;75.35;101662.80;3434820;80;22635;-80
2022/10/09 18:28:35;;;;;;;14.40;10.55;;;;;;;6.80;75.63;101667.55;3451162;80;20916;-80
2022/10/09 18:33:26;;;;;;;15.30;12.43;;;;;;;6.73;75.66;101664.19;3406038;80;21445;-80
2022/10/09 18:38:49;;;;;;;16.20;12.88;;;;;;;6.65;76.01;101679.72;3420923;80;21806;-81
2022/10/09 18:43:41;;;;;;;15.80;12.23;;;;;;;6.59;75.92;101673.86;3414371;80;21168;-80
2022/10/09 18:48:37;;;;;;;16.45;13.53;;;;;;;6.51;75.80;101676.88;3472513;79;21045;-80
2022/10/09 18:53:30;;;;;;;17.67;12.95;;;;;;;6.42;76.03;101682.09;3427928;81;20968;-80
2022/10/09 18:58:22;;;;;;;16.60;12.43;;;;;;;6.35;76.14;101686.48;3367226;81;20977;-80
2022/10/09 19:03:14;;;;;;;16.50;12.90;;;;;;;6.33;76.36;101701.02;3377749;82;20985;-80
2022/10/09 19:08:05;;;;;;;21.73;14.73;;;;;;;6.28;76.45;101698.61;3355022;82;21057;-80
2022/10/09 19:12:56;;;;;;;20.17;13.55;;;;;;;6.26;76.46;101700.20;3396756;83;21465;-81
2022/10/09 19:17:48;;;;;;;19.57;15.45;;;;;;;6.21;76.10;101696.53;3346262;82;20998;-81
2022/10/09 19:22:39;;;;;;;16.10;13.80;;;;;;;6.16;76.29;101701.86;3364879;83;21496;-81
2022/10/09 19:27:31;;;;;;;22.00;16.35;;;;;;;6.08;76.07;101710.10;3340068;82;21002;-81
2022/10/09 19:32:22;;;;;;;18.65;16.15;;;;;;;5.99;76.20;101708.73;3352149;82;20969;-81
2022/10/09 19:37:14;;;;;;;27.30;20.25;;;;;;;5.85;75.78;101706.30;3339198;82;21508;-81
2022/10/09 19:42:05;;;;;;;23.18;18.30;;;;;;;5.80;76.29;101712.91;3366494;82;20993;-81
2022/10/09 19:46:57;;;;;;;21.75;17.25;;;;;;;5.75;76.24;101713.48;3409223;80;22217;-81
2022/10/09 19:51:49;;;;;;;25.10;20.82;;;;;;;5.68;76.11;101707.98;3377682;81;20923;-80
2022/10/09 19:56:40;;;;;;;25.00;20.62;;;;;;;5.63;76.15;101712.01;3437547;82;20939;-81
2022/10/09 20:01:34;;;;;;;29.27;22.02;;;;;;;5.56;76.20;101704.75;3528850;79;21113;-81
2022/10/09 20:06:27;;;;;;;27.20;20.75;;;;;;;5.52;76.30;101717.01;3417528;80;21003;-81
2022/10/09 20:11:19;;;;;;;26.57;22.48;;;;;;;5.43;76.05;101721.27;3417007;80;21455;-80
2022/10/09 20:16:13;;;;;;;35.70;26.70;;;;;;;5.30;76.39;101730.04;3426080;80;20941;-81
2022/10/09 20:21:05;;;;;;;29.82;25.32;;;;;;;5.25;76.40;101730.59;3469753;80;21046;-80
2022/10/09 20:26:02;;;;;;;28.45;24.00;;;;;;;5.20;76.48;101732.91;3441797;80;22457;-80
2022/10/09 20:30:59;;;;;;;;;;;;;;;5.15;76.43;101727.52;3452831;80;20955;-81
2022/10/09 20:35:54;;;;;;;27.25;22.82;;;;;;;5.07;76.36;101739.08;3447199;80;20352;-81
2022/10/09 20:40:47;;;;;;;29.37;23.15;;;;;;;5.00;76.42;101736.09;3471402;80;21026;-80
2022/10/09 20:45:43;;;;;;;26.60;20.97;;;;;;;4.91;76.37;101743.78;3430875;80;21050;-80
2022/10/09 20:50:38;;;;;;;23.40;19.15;;;;;;;4.87;76.51;101737.97;3461841;80;21325;-80
2022/10/09 20:55:33;;;;;;;27.17;21.68;;;;;;;4.80;76.59;101742.30;3467822;80;20991;-81
2022/10/09 21:00:25;;;;;;;27.45;20.20;;;;;;;4.78;76.42;101746.48;3444019;81;20986;-81
2022/10/09 21:05:16;;;;;;;27.35;22.48;;;;;;;4.72;76.36;101738.37;3476187;79;20979;-81
2022/10/09 21:10:08;;;;;;;27.05;19.40;;;;;;;4.65;76.45;101732.39;3434736;80;20970;-81
2022/10/09 21:15:00;;;;;;;26.00;20.70;;;;;;;4.62;76.27;101742.55;3452228;80;21685;-81
2022/10/09 21:19:51;;;;;;;26.17;19.60;;;;;;;4.54;76.43;101742.98;3438581;80;21070;-81
2022/10/09 21:24:42;;;;;;;31.82;22.93;;;;;;;4.50;76.46;101742.71;3447330;80;21029;-81
2022/10/09 21:29:34;;;;;;;29.30;23.75;;;;;;;4.43;76.59;101745.32;3398803;80;21041;-80
2022/10/09 21:34:25;;;;;;;34.40;21.27;;;;;;;4.37;76.29;101743.69;3414139;80;20942;-80
2022/10/09 21:39:16;;;;;;;27.98;20.82;;;;;;;4.31;76.55;101745.89;3463748;80;20947;-80
2022/10/09 21:44:07;;;;;;;26.42;20.90;;;;;;;4.26;76.51;101746.05;3505597;79;20971;-80
2022/10/09 21:48:58;;;;;;;27.42;20.90;;;;;;;4.20;76.66;101748.74;3408668;81;21708;-80
2022/10/09 21:53:53;;;;;;;24.77;19.32;;;;;;;4.18;76.52;101743.88;3471173;79;20948;-81
2022/10/09 21:58:45;;;;;;;28.00;20.77;;;;;;;4.12;76.60;101740.95;3506470;79;21420;-80
2022/10/09 22:03:37;;;;;;;29.37;21.30;;;;;;;4.07;76.39;101737.61;3421193;81;21281;-88
2022/10/09 22:08:28;;;;;;;23.18;18.00;;;;;;;3.99;76.31;101735.47;3461918;80;20975;-88
2022/10/09 22:13:20;;;;;;;21.68;17.42;;;;;;;3.93;76.49;101738.06;3474634;80;21587;-89
2022/10/09 22:18:12;;;;;;;22.52;17.32;;;;;;;3.87;76.44;101741.58;3476251;80;20978;-88
2022/10/09 22:23:03;;;;;;;25.02;17.40;;;;;;;3.81;76.45;101742.97;3480548;80;20959;-88
2022/10/09 22:27:54;;;;;;;25.52;18.65;;;;;;;3.72;76.41;101741.13;3446918;80;21046;-89
2022/10/09 22:32:45;;;;;;;23.57;17.12;;;;;;;3.66;76.67;101742.02;3478882;80;20987;-88
2022/10/09 22:37:36;;;;;;;26.35;17.40;;;;;;;3.64;76.79;101750.05;3415293;80;21641;-88
2022/10/09 22:42:27;;;;;;;20.60;16.60;;;;;;;3.59;76.61;101748.47;3458202;80;21019;-88
2022/10/09 22:47:19;;;;;;;25.25;18.82;;;;;;;3.55;76.61;101758.48;3452171;80;21502;-88
2022/10/09 22:52:10;;;;;;;28.12;18.87;;;;;;;3.48;76.41;101762.35;3485476;80;21032;-88